Weather at Montluçon-Domérat Airfield

Public forecast

Using degrees Celsius for public forecast. Weather courtesy of forecast.io.

Closest aviation weather report (METAR) to Montluçon-Domérat Airfield

Closest report is Vichy-Charmeil Airport, 36.3 nm (67.2 km) ESE. Retrieved 2022/08/14 16:00 UTC (19 minutes ago):

LFLV 141600Z AUTO 16005KT CAVOK 23/18 Q1009

Closest aviation forecast (TAF) to Montluçon-Domérat Airfield

Closest forecast is Clermont-Ferrand Auvergne Airport, 42.1 nm (78.0 km) SE. Retrieved 2022/08/14 12:00 UTC (4 hours ago):

TAF LFLC 141100Z 1412/1512 18008KT 9999 FEW045 BKN100 TEMPO 1412/1415 VRB15G35KT 3000 TSRA BKN060CB